sensor_id;sensor_type;location;lat;lon;timestamp;pressure;altitude;pressure_sealevel;temperature;humidity
52653;BME280;39353;42.864;12.014;2023-05-10T00:00:44;97207.55;;;24.12;54.78
52653;BME280;39353;42.864;12.014;2023-05-10T00:03:11;97206.18;;;24.12;54.78
52653;BME280;39353;42.864;12.014;2023-05-10T00:05:53;97197.19;;;24.12;54.76
52653;BME280;39353;42.864;12.014;2023-05-10T00:08:20;97192.53;;;24.11;54.81
52653;BME280;39353;42.864;12.014;2023-05-10T00:10:47;97183.86;;;24.11;54.82
52653;BME280;39353;42.864;12.014;2023-05-10T00:13:14;97182.48;;;24.11;54.65
52653;BME280;39353;42.864;12.014;2023-05-10T00:15:41;97177.95;;;24.11;54.73
52653;BME280;39353;42.864;12.014;2023-05-10T00:18:08;97177.61;;;24.11;54.82
52653;BME280;39353;42.864;12.014;2023-05-10T00:20:36;97176.40;;;24.10;54.62
52653;BME280;39353;42.864;12.014;2023-05-10T00:23:03;97177.41;;;24.07;54.74
52653;BME280;39353;42.864;12.014;2023-05-10T00:25:30;97175.77;;;24.04;54.72
52653;BME280;39353;42.864;12.014;2023-05-10T00:28:11;97177.11;;;24.01;54.84
52653;BME280;39353;42.864;12.014;2023-05-10T00:30:39;97178.48;;;23.98;54.96
52653;BME280;39353;42.864;12.014;2023-05-10T00:33:21;97176.48;;;23.97;54.98
52653;BME280;39353;42.864;12.014;2023-05-10T00:35:52;97174.57;;;23.96;54.93
52653;BME280;39353;42.864;12.014;2023-05-10T00:38:20;97172.94;;;23.94;54.98
52653;BME280;39353;42.864;12.014;2023-05-10T00:40:47;97172.32;;;23.93;55.14
52653;BME280;39353;42.864;12.014;2023-05-10T00:43:34;97169.50;;;23.91;55.05
52653;BME280;39353;42.864;12.014;2023-05-10T00:46:16;97168.90;;;23.91;55.07
52653;BME280;39353;42.864;12.014;2023-05-10T00:48:44;97166.19;;;23.89;55.07
52653;BME280;39353;42.864;12.014;2023-05-10T00:51:26;97160.20;;;23.88;55.10
52653;BME280;39353;42.864;12.014;2023-05-10T00:53:54;97160.95;;;23.88;55.16
52653;BME280;39353;42.864;12.014;2023-05-10T00:56:36;97155.95;;;23.86;55.15
52653;BME280;39353;42.864;12.014;2023-05-10T00:59:03;97153.74;;;23.85;55.00
52653;BME280;39353;42.864;12.014;2023-05-10T01:01:48;97146.17;;;23.85;55.15
52653;BME280;39353;42.864;12.014;2023-05-10T01:04:19;97145.90;;;23.84;55.13
52653;BME280;39353;42.864;12.014;2023-05-10T01:06:52;97147.70;;;23.83;55.04
52653;BME280;39353;42.864;12.014;2023-05-10T01:09:22;97144.06;;;23.82;55.20
52653;BME280;39353;42.864;12.014;2023-05-10T01:11:50;97144.10;;;23.80;55.26
52653;BME280;39353;42.864;12.014;2023-05-10T01:14:31;97145.20;;;23.80;55.19
52653;BME280;39353;42.864;12.014;2023-05-10T01:17:13;97139.11;;;23.79;55.20
52653;BME280;39353;42.864;12.014;2023-05-10T01:19:42;97140.91;;;23.80;55.27
52653;BME280;39353;42.864;12.014;2023-05-10T01:35:03;97131.80;;;23.78;55.20
52653;BME280;39353;42.864;12.014;2023-05-10T01:37:59;97128.05;;;23.77;55.25
52653;BME280;39353;42.864;12.014;2023-05-10T01:43:45;97127.54;;;23.76;55.19
52653;BME280;39353;42.864;12.014;2023-05-10T01:46:39;97126.45;;;23.76;55.31
52653;BME280;39353;42.864;12.014;2023-05-10T01:49:25;97127.11;;;23.76;55.22
52653;BME280;39353;42.864;12.014;2023-05-10T01:52:12;97128.64;;;23.76;55.15
52653;BME280;39353;42.864;12.014;2023-05-10T01:54:48;97127.43;;;23.75;55.13
52653;BME280;39353;42.864;12.014;2023-05-10T01:57:18;97124.91;;;23.75;55.14
52653;BME280;39353;42.864;12.014;2023-05-10T01:59:50;97125.19;;;23.74;55.16
52653;BME280;39353;42.864;12.014;2023-05-10T02:02:37;97120.30;;;23.74;55.17
52653;BME280;39353;42.864;12.014;2023-05-10T02:05:07;97120.35;;;23.74;55.11
52653;BME280;39353;42.864;12.014;2023-05-10T02:07:37;97116.82;;;23.73;55.15
52653;BME280;39353;42.864;12.014;2023-05-10T02:10:10;97117.80;;;23.73;55.18
52653;BME280;39353;42.864;12.014;2023-05-10T02:12:42;97117.91;;;23.73;55.16
52653;BME280;39353;42.864;12.014;2023-05-10T02:15:12;97116.45;;;23.74;55.17
52653;BME280;39353;42.864;12.014;2023-05-10T02:17:46;97119.76;;;23.75;55.21
52653;BME280;39353;42.864;12.014;2023-05-10T02:20:32;97116.09;;;23.75;55.19
52653;BME280;39353;42.864;12.014;2023-05-10T02:23:04;97115.71;;;23.75;55.18
52653;BME280;39353;42.864;12.014;2023-05-10T02:25:32;97111.27;;;23.75;55.03
52653;BME280;39353;42.864;12.014;2023-05-10T02:28:02;97112.90;;;23.74;55.10
52653;BME280;39353;42.864;12.014;2023-05-10T02:30:32;97108.73;;;23.74;55.01
52653;BME280;39353;42.864;12.014;2023-05-10T02:33:02;97107.76;;;23.75;55.06
52653;BME280;39353;42.864;12.014;2023-05-10T02:35:46;97105.52;;;23.75;55.07
52653;BME280;39353;42.864;12.014;2023-05-10T02:38:14;97104.27;;;23.76;55.02
52653;BME280;39353;42.864;12.014;2023-05-10T02:40:57;97099.33;;;23.76;55.01
52653;BME280;39353;42.864;12.014;2023-05-10T02:43:30;97095.46;;;23.77;55.02
52653;BME280;39353;42.864;12.014;2023-05-10T02:46:12;97088.62;;;23.77;54.99
52653;BME280;39353;42.864;12.014;2023-05-10T02:48:41;97090.52;;;23.77;55.03
52653;BME280;39353;42.864;12.014;2023-05-10T02:51:30;97082.31;;;23.77;55.01
52653;BME280;39353;42.864;12.014;2023-05-10T02:54:21;97081.91;;;23.77;54.97
52653;BME280;39353;42.864;12.014;2023-05-10T02:57:06;97080.16;;;23.76;54.99
52653;BME280;39353;42.864;12.014;2023-05-10T02:59:33;97080.33;;;23.76;54.85
52653;BME280;39353;42.864;12.014;2023-05-10T03:02:21;97074.46;;;23.76;54.96
52653;BME280;39353;42.864;12.014;2023-05-10T03:04:49;97074.20;;;23.77;54.93
52653;BME280;39353;42.864;12.014;2023-05-10T03:07:17;97071.89;;;23.76;54.97
52653;BME280;39353;42.864;12.014;2023-05-10T03:09:48;97075.60;;;23.75;54.96
52653;BME280;39353;42.864;12.014;2023-05-10T03:12:31;97072.42;;;23.74;55.07
52653;BME280;39353;42.864;12.014;2023-05-10T03:15:22;97071.35;;;23.73;54.99
52653;BME280;39353;42.864;12.014;2023-05-10T03:18:06;97067.33;;;23.72;55.09
52653;BME280;39353;42.864;12.014;2023-05-10T03:20:42;97061.58;;;23.71;55.16
52653;BME280;39353;42.864;12.014;2023-05-10T03:23:35;97061.84;;;23.70;55.05
52653;BME280;39353;42.864;12.014;2023-05-10T03:26:24;97057.45;;;23.69;55.18
52653;BME280;39353;42.864;12.014;2023-05-10T03:29:13;97057.34;;;23.68;55.14
52653;BME280;39353;42.864;12.014;2023-05-10T03:31:42;97060.40;;;23.68;55.10
52653;BME280;39353;42.864;12.014;2023-05-10T03:34:11;97057.82;;;23.66;55.00
52653;BME280;39353;42.864;12.014;2023-05-10T03:36:41;97052.88;;;23.66;55.00
52653;BME280;39353;42.864;12.014;2023-05-10T03:39:09;97049.59;;;23.66;55.18
52653;BME280;39353;42.864;12.014;2023-05-10T03:41:51;97050.16;;;23.68;55.23
52653;BME280;39353;42.864;12.014;2023-05-10T03:44:18;97050.32;;;23.68;55.08
52653;BME280;39353;42.864;12.014;2023-05-10T03:46:46;97050.38;;;23.69;54.98
52653;BME280;39353;42.864;12.014;2023-05-10T03:49:13;97050.16;;;23.68;54.90
52653;BME280;39353;42.864;12.014;2023-05-10T03:51:42;97046.60;;;23.68;54.97
52653;BME280;39353;42.864;12.014;2023-05-10T03:54:13;97045.77;;;23.68;55.11
52653;BME280;39353;42.864;12.014;2023-05-10T03:57:00;97046.34;;;23.69;54.98
52653;BME280;39353;42.864;12.014;2023-05-10T03:59:41;97046.34;;;23.69;54.99
52653;BME280;39353;42.864;12.014;2023-05-10T04:02:08;97047.27;;;23.70;54.98
52653;BME280;39353;42.864;12.014;2023-05-10T04:04:37;97039.73;;;23.70;55.02
52653;BME280;39353;42.864;12.014;2023-05-10T04:07:19;97036.38;;;23.71;54.99
52653;BME280;39353;42.864;12.014;2023-05-10T04:09:46;97033.73;;;23.71;55.07
52653;BME280;39353;42.864;12.014;2023-05-10T04:12:13;97030.96;;;23.71;55.05
52653;BME280;39353;42.864;12.014;2023-05-10T04:14:55;97032.58;;;23.73;55.25
52653;BME280;39353;42.864;12.014;2023-05-10T04:17:36;97033.89;;;23.73;55.09
52653;BME280;39353;42.864;12.014;2023-05-10T04:20:03;97033.83;;;23.73;55.02
52653;BME280;39353;42.864;12.014;2023-05-10T04:22:45;97032.27;;;23.71;55.01
52653;BME280;39353;42.864;12.014;2023-05-10T04:25:13;97033.59;;;23.71;54.93
52653;BME280;39353;42.864;12.014;2023-05-10T04:27:55;97030.08;;;23.72;55.19
52653;BME280;39353;42.864;12.014;2023-05-10T04:30:36;97033.50;;;23.73;54.93
52653;BME280;39353;42.864;12.014;2023-05-10T04:33:20;97028.92;;;23.76;55.14
52653;BME280;39353;42.864;12.014;2023-05-10T04:36:02;97028.11;;;23.76;55.17
52653;BME280;39353;42.864;12.014;2023-05-10T04:38:29;97022.74;;;23.76;55.18
52653;BME280;39353;42.864;12.014;2023-05-10T04:41:10;97024.16;;;23.76;55.36
52653;BME280;39353;42.864;12.014;2023-05-10T04:43:51;97025.12;;;23.78;55.48
52653;BME280;39353;42.864;12.014;2023-05-10T04:46:18;97023.06;;;23.79;55.29
52653;BME280;39353;42.864;12.014;2023-05-10T04:48:47;97022.02;;;23.80;55.16
52653;BME280;39353;42.864;12.014;2023-05-10T04:51:14;97020.97;;;23.79;55.49
52653;BME280;39353;42.864;12.014;2023-05-10T04:53:41;97023.71;;;23.79;55.43
52653;BME280;39353;42.864;12.014;2023-05-10T04:56:08;97022.29;;;23.79;55.49
52653;BME280;39353;42.864;12.014;2023-05-10T04:58:49;97020.09;;;23.78;55.55
52653;BME280;39353;42.864;12.014;2023-05-10T05:01:16;97022.89;;;23.79;55.68
52653;BME280;39353;42.864;12.014;2023-05-10T05:03:57;97018.38;;;23.78;55.55
52653;BME280;39353;42.864;12.014;2023-05-10T05:06:25;97020.63;;;23.78;55.71
52653;BME280;39353;42.864;12.014;2023-05-10T05:09:07;97019.39;;;23.79;55.67
52653;BME280;39353;42.864;12.014;2023-05-10T05:11:49;97019.10;;;23.79;55.47
52653;BME280;39353;42.864;12.014;2023-05-10T05:14:30;97017.91;;;23.79;55.54
52653;BME280;39353;42.864;12.014;2023-05-10T05:16:57;97015.62;;;23.80;55.51
52653;BME280;39353;42.864;12.014;2023-05-10T05:19:42;97015.39;;;23.80;55.43
52653;BME280;39353;42.864;12.014;2023-05-10T05:22:25;97010.95;;;23.80;55.38
52653;BME280;39353;42.864;12.014;2023-05-10T05:25:09;97008.94;;;23.80;55.29
52653;BME280;39353;42.864;12.014;2023-05-10T05:27:37;97014.95;;;23.80;55.37
52653;BME280;39353;42.864;12.014;2023-05-10T05:30:19;97014.23;;;23.79;55.36
52653;BME280;39353;42.864;12.014;2023-05-10T05:33:01;97011.99;;;23.79;55.44
52653;BME280;39353;42.864;12.014;2023-05-10T05:35:28;97011.61;;;23.80;55.57
52653;BME280;39353;42.864;12.014;2023-05-10T05:37:55;97008.06;;;23.80;55.47
52653;BME280;39353;42.864;12.014;2023-05-10T05:40:23;97007.61;;;23.80;55.29
52653;BME280;39353;42.864;12.014;2023-05-10T05:43:03;97004.95;;;23.77;55.30
52653;BME280;39353;42.864;12.014;2023-05-10T05:45:31;97001.73;;;23.74;55.14
52653;BME280;39353;42.864;12.014;2023-05-10T05:47:59;97006.69;;;23.71;55.15
52653;BME280;39353;42.864;12.014;2023-05-10T05:50:40;97001.52;;;23.68;54.80
52653;BME280;39353;42.864;12.014;2023-05-10T05:53:06;97005.34;;;23.67;54.89
52653;BME280;39353;42.864;12.014;2023-05-10T05:55:56;97008.46;;;23.65;54.57
52653;BME280;39353;42.864;12.014;2023-05-10T05:58:25;97008.22;;;23.65;54.53
52653;BME280;39353;42.864;12.014;2023-05-10T06:00:53;97010.58;;;23.65;54.41
52653;BME280;39353;42.864;12.014;2023-05-10T06:03:33;97013.90;;;23.64;54.37
52653;BME280;39353;42.864;12.014;2023-05-10T06:06:01;97012.76;;;23.64;54.25
52653;BME280;39353;42.864;12.014;2023-05-10T06:08:41;97011.00;;;23.63;54.13
52653;BME280;39353;42.864;12.014;2023-05-10T06:11:08;97011.83;;;23.64;54.19
52653;BME280;39353;42.864;12.014;2023-05-10T06:13:49;97010.84;;;23.64;54.06
52653;BME280;39353;42.864;12.014;2023-05-10T06:16:31;97008.31;;;23.63;54.00
52653;BME280;39353;42.864;12.014;2023-05-10T06:19:13;97007.59;;;23.63;54.13
52653;BME280;39353;42.864;12.014;2023-05-10T06:21:54;97005.79;;;23.63;54.26
52653;BME280;39353;42.864;12.014;2023-05-10T06:24:37;97006.12;;;23.63;53.98
52653;BME280;39353;42.864;12.014;2023-05-10T06:27:04;97006.83;;;23.62;54.14
52653;BME280;39353;42.864;12.014;2023-05-10T06:29:33;97007.89;;;23.60;53.90
52653;BME280;39353;42.864;12.014;2023-05-10T06:32:15;97008.36;;;23.58;54.37
52653;BME280;39353;42.864;12.014;2023-05-10T06:34:57;97007.90;;;23.56;54.27
52653;BME280;39353;42.864;12.014;2023-05-10T06:37:24;97011.08;;;23.56;54.27
52653;BME280;39353;42.864;12.014;2023-05-10T06:39:52;97011.30;;;23.56;53.56
52653;BME280;39353;42.864;12.014;2023-05-10T06:42:33;97009.17;;;23.35;52.51
52653;BME280;39353;42.864;12.014;2023-05-10T06:45:00;97011.75;;;23.31;53.68
52653;BME280;39353;42.864;12.014;2023-05-10T06:47:41;97013.66;;;23.38;53.57
52653;BME280;39353;42.864;12.014;2023-05-10T06:50:09;97008.85;;;23.35;53.10
52653;BME280;39353;42.864;12.014;2023-05-10T06:52:52;97013.66;;;23.39;53.78
52653;BME280;39353;42.864;12.014;2023-05-10T06:55:33;97009.48;;;23.42;53.74
52653;BME280;39353;42.864;12.014;2023-05-10T06:58:14;97009.80;;;23.45;53.66
52653;BME280;39353;42.864;12.014;2023-05-10T07:01:01;97010.48;;;23.49;53.79
52653;BME280;39353;42.864;12.014;2023-05-10T07:03:30;97010.08;;;23.50;53.79
52653;BME280;39353;42.864;12.014;2023-05-10T07:06:04;97006.09;;;23.52;53.83
52653;BME280;39353;42.864;12.014;2023-05-10T07:08:31;97005.19;;;23.54;53.82
52653;BME280;39353;42.864;12.014;2023-05-10T07:11:13;97009.36;;;23.55;53.73
52653;BME280;39353;42.864;12.014;2023-05-10T07:13:40;97006.09;;;23.56;53.79
52653;BME280;39353;42.864;12.014;2023-05-10T07:16:24;97003.30;;;23.56;53.82
52653;BME280;39353;42.864;12.014;2023-05-10T07:19:05;97001.83;;;23.56;53.87
52653;BME280;39353;42.864;12.014;2023-05-10T07:21:32;97003.48;;;23.58;53.70
52653;BME280;39353;42.864;12.014;2023-05-10T07:23:59;96998.80;;;23.60;53.82
52653;BME280;39353;42.864;12.014;2023-05-10T07:26:27;96999.73;;;23.60;53.77
52653;BME280;39353;42.864;12.014;2023-05-10T07:29:08;97001.45;;;23.61;53.88
52653;BME280;39353;42.864;12.014;2023-05-10T07:31:37;97000.35;;;23.61;53.91
52653;BME280;39353;42.864;12.014;2023-05-10T07:34:04;96995.91;;;23.62;53.81
52653;BME280;39353;42.864;12.014;2023-05-10T07:36:31;96996.45;;;23.61;53.83
52653;BME280;39353;42.864;12.014;2023-05-10T07:39:13;96993.59;;;23.59;53.85
52653;BME280;39353;42.864;12.014;2023-05-10T07:41:40;96993.19;;;23.58;53.81
52653;BME280;39353;42.864;12.014;2023-05-10T07:44:20;96987.10;;;23.58;53.95
52653;BME280;39353;42.864;12.014;2023-05-10T07:46:51;96991.91;;;23.57;53.87
52653;BME280;39353;42.864;12.014;2023-05-10T07:49:18;96992.84;;;23.57;53.93
52653;BME280;39353;42.864;12.014;2023-05-10T07:51:59;96989.13;;;23.58;53.93
52653;BME280;39353;42.864;12.014;2023-05-10T07:54:40;96993.91;;;23.50;52.53
52653;BME280;39353;42.864;12.014;2023-05-10T07:57:07;96993.67;;;23.34;52.80
52653;BME280;39353;42.864;12.014;2023-05-10T07:59:50;96992.33;;;23.32;53.49
52653;BME280;39353;42.864;12.014;2023-05-10T08:02:31;96988.83;;;23.36;53.53
52653;BME280;39353;42.864;12.014;2023-05-10T08:04:59;96986.06;;;23.43;53.92
52653;BME280;39353;42.864;12.014;2023-05-10T08:07:25;96985.85;;;23.49;54.04
52653;BME280;39353;42.864;12.014;2023-05-10T08:09:52;96987.42;;;23.53;54.04
52653;BME280;39353;42.864;12.014;2023-05-10T08:12:19;96987.58;;;23.55;53.89
52653;BME280;39353;42.864;12.014;2023-05-10T08:14:46;96983.89;;;23.60;54.64
52653;BME280;39353;42.864;12.014;2023-05-10T08:17:13;96981.64;;;23.63;55.05
52653;BME280;39353;42.864;12.014;2023-05-10T08:19:54;96978.79;;;23.68;54.90
52653;BME280;39353;42.864;12.014;2023-05-10T08:22:36;96979.69;;;23.71;55.00
52653;BME280;39353;42.864;12.014;2023-05-10T08:25:18;96978.89;;;23.75;54.96
52653;BME280;39353;42.864;12.014;2023-05-10T08:27:59;96976.40;;;23.77;55.16
52653;BME280;39353;42.864;12.014;2023-05-10T08:30:25;96979.17;;;23.79;55.13
52653;BME280;39353;42.864;12.014;2023-05-10T08:32:52;96976.56;;;23.82;55.07
52653;BME280;39353;42.864;12.014;2023-05-10T08:35:23;96972.32;;;23.84;55.17
52653;BME280;39353;42.864;12.014;2023-05-10T08:37:52;96971.02;;;23.85;55.05
52653;BME280;39353;42.864;12.014;2023-05-10T08:40:20;96973.05;;;23.86;54.91
52653;BME280;39353;42.864;12.014;2023-05-10T08:42:56;96969.83;;;23.87;54.92
52653;BME280;39353;42.864;12.014;2023-05-10T08:45:41;96968.27;;;23.89;55.18
52653;BME280;39353;42.864;12.014;2023-05-10T08:48:10;96972.27;;;23.91;54.96
52653;BME280;39353;42.864;12.014;2023-05-10T08:50:40;96972.39;;;23.91;54.97
52653;BME280;39353;42.864;12.014;2023-05-10T08:53:12;96962.54;;;23.93;54.97
52653;BME280;39353;42.864;12.014;2023-05-10T08:55:54;96968.93;;;23.94;55.10
52653;BME280;39353;42.864;12.014;2023-05-10T08:58:22;96968.96;;;23.92;54.99
52653;BME280;39353;42.864;12.014;2023-05-10T09:01:03;96970.88;;;23.93;54.98
52653;BME280;39353;42.864;12.014;2023-05-10T09:03:46;96959.42;;;23.94;54.97
52653;BME280;39353;42.864;12.014;2023-05-10T09:06:14;96954.52;;;23.95;54.89
52653;BME280;39353;42.864;12.014;2023-05-10T09:08:56;96955.70;;;23.98;54.91
52653;BME280;39353;42.864;12.014;2023-05-10T09:11:38;96952.34;;;23.97;54.81
52653;BME280;39353;42.864;12.014;2023-05-10T09:14:23;96948.55;;;23.95;54.85
52653;BME280;39353;42.864;12.014;2023-05-10T09:17:05;96950.51;;;23.94;54.72
52653;BME280;39353;42.864;12.014;2023-05-10T09:19:47;96945.13;;;23.94;55.03
52653;BME280;39353;42.864;12.014;2023-05-10T09:22:14;96941.98;;;23.98;55.01
52653;BME280;39353;42.864;12.014;2023-05-10T09:24:42;96939.05;;;24.00;54.87
52653;BME280;39353;42.864;12.014;2023-05-10T09:27:11;96944.68;;;24.02;54.84
52653;BME280;39353;42.864;12.014;2023-05-10T09:29:43;96942.77;;;24.04;54.81
52653;BME280;39353;42.864;12.014;2023-05-10T09:32:11;96940.81;;;24.05;54.88
52653;BME280;39353;42.864;12.014;2023-05-10T09:34:54;96941.48;;;24.06;54.92
52653;BME280;39353;42.864;12.014;2023-05-10T09:37:35;96940.66;;;24.07;54.89
52653;BME280;39353;42.864;12.014;2023-05-10T09:40:19;96942.97;;;24.07;54.84
52653;BME280;39353;42.864;12.014;2023-05-10T09:42:58;96940.99;;;24.07;54.85
52653;BME280;39353;42.864;12.014;2023-05-10T09:45:28;96933.51;;;24.08;54.58
52653;BME280;39353;42.864;12.014;2023-05-10T09:47:57;96936.33;;;24.06;54.49
52653;BME280;39353;42.864;12.014;2023-05-10T09:50:42;96932.76;;;24.05;54.57
52653;BME280;39353;42.864;12.014;2023-05-10T09:53:24;96929.52;;;24.03;54.38
52653;BME280;39353;42.864;12.014;2023-05-10T09:56:05;96928.84;;;24.03;54.39
52653;BME280;39353;42.864;12.014;2023-05-10T09:59:02;96931.56;;;24.07;54.31
52653;BME280;39353;42.864;12.014;2023-05-10T10:01:51;96925.78;;;24.09;54.26
52653;BME280;39353;42.864;12.014;2023-05-10T10:04:39;96926.63;;;24.13;54.18
52653;BME280;39353;42.864;12.014;2023-05-10T10:07:25;96924.85;;;24.16;54.18
52653;BME280;39353;42.864;12.014;2023-05-10T10:10:08;96923.84;;;24.20;54.06
52653;BME280;39353;42.864;12.014;2023-05-10T10:12:56;96922.64;;;24.23;53.96
52653;BME280;39353;42.864;12.014;2023-05-10T10:15:38;96923.04;;;24.25;53.82
52653;BME280;39353;42.864;12.014;2023-05-10T10:18:05;96921.00;;;24.29;54.03
52653;BME280;39353;42.864;12.014;2023-05-10T10:20:47;96919.93;;;24.33;53.80
52653;BME280;39353;42.864;12.014;2023-05-10T10:23:17;96911.08;;;24.37;53.80
52653;BME280;39353;42.864;12.014;2023-05-10T10:25:46;96912.64;;;24.42;53.69
52653;BME280;39353;42.864;12.014;2023-05-10T10:31:10;96898.92;;;24.48;53.48
52653;BME280;39353;42.864;12.014;2023-05-10T10:36:27;96902.73;;;24.54;53.43
52653;BME280;39353;42.864;12.014;2023-05-10T10:38:56;96897.89;;;24.60;53.36
52653;BME280;39353;42.864;12.014;2023-05-10T10:41:50;96897.84;;;24.61;53.44
52653;BME280;39353;42.864;12.014;2023-05-10T10:46:58;96895.09;;;24.69;53.42
52653;BME280;39353;42.864;12.014;2023-05-10T10:52:31;96893.67;;;24.77;53.63
52653;BME280;39353;42.864;12.014;2023-05-10T10:55:19;96890.25;;;24.82;53.80
52653;BME280;39353;42.864;12.014;2023-05-10T10:57:57;96892.20;;;24.86;54.20
52653;BME280;39353;42.864;12.014;2023-05-10T11:00:30;96881.71;;;24.88;54.36
52653;BME280;39353;42.864;12.014;2023-05-10T11:03:13;96879.14;;;24.90;54.51
52653;BME280;39353;42.864;12.014;2023-05-10T11:11:10;96872.01;;;24.91;54.85
52653;BME280;39353;42.864;12.014;2023-05-10T11:13:42;96876.75;;;24.95;54.83
52653;BME280;39353;42.864;12.014;2023-05-10T11:16:14;96876.27;;;24.96;55.06
52653;BME280;39353;42.864;12.014;2023-05-10T11:18:58;96877.59;;;24.98;55.21
52653;BME280;39353;42.864;12.014;2023-05-10T11:21:26;96875.73;;;24.99;54.98
52653;BME280;39353;42.864;12.014;2023-05-10T11:23:56;96873.91;;;24.98;55.30
52653;BME280;39353;42.864;12.014;2023-05-10T11:26:35;96869.92;;;25.03;55.37
52653;BME280;39353;42.864;12.014;2023-05-10T11:29:02;96867.91;;;25.09;55.65
52653;BME280;39353;42.864;12.014;2023-05-10T11:31:47;96865.89;;;25.12;55.58
52653;BME280;39353;42.864;12.014;2023-05-10T11:34:31;96861.52;;;25.17;55.50
52653;BME280;39353;42.864;12.014;2023-05-10T11:37:13;96865.64;;;25.22;55.42
52653;BME280;39353;42.864;12.014;2023-05-10T11:39:45;96853.34;;;25.23;55.28
52653;BME280;39353;42.864;12.014;2023-05-10T11:42:16;96854.66;;;25.24;55.13
52653;BME280;39353;42.864;12.014;2023-05-10T11:44:53;96859.12;;;25.23;55.13
52653;BME280;39353;42.864;12.014;2023-05-10T11:47:20;96856.54;;;25.24;54.99
52653;BME280;39353;42.864;12.014;2023-05-10T11:50:03;96859.39;;;25.24;54.72
52653;BME280;39353;42.864;12.014;2023-05-10T11:52:35;96851.27;;;25.24;54.66
52653;BME280;39353;42.864;12.014;2023-05-10T11:55:04;96851.11;;;25.25;54.57
52653;BME280;39353;42.864;12.014;2023-05-10T11:57:31;96855.17;;;25.27;54.35
52653;BME280;39353;42.864;12.014;2023-05-10T12:00:13;96844.75;;;25.27;54.23
52653;BME280;39353;42.864;12.014;2023-05-10T12:02:43;96849.95;;;25.27;54.24
52653;BME280;39353;42.864;12.014;2023-05-10T12:05:10;96849.67;;;25.23;54.13
52653;BME280;39353;42.864;12.014;2023-05-10T12:10:40;96848.55;;;25.21;54.06
52653;BME280;39353;42.864;12.014;2023-05-10T12:13:20;96847.88;;;25.19;53.82
52653;BME280;39353;42.864;12.014;2023-05-10T12:15:48;96848.02;;;25.19;53.80
52653;BME280;39353;42.864;12.014;2023-05-10T12:18:23;96847.29;;;25.20;53.83
52653;BME280;39353;42.864;12.014;2023-05-10T12:21:05;96844.27;;;25.18;53.92
52653;BME280;39353;42.864;12.014;2023-05-10T12:23:32;96848.77;;;25.18;53.82
52653;BME280;39353;42.864;12.014;2023-05-10T12:26:03;96847.18;;;25.15;53.94
52653;BME280;39353;42.864;12.014;2023-05-10T12:28:32;96853.98;;;25.13;53.87
52653;BME280;39353;42.864;12.014;2023-05-10T12:31:00;96853.11;;;25.14;53.99
52653;BME280;39353;42.864;12.014;2023-05-10T12:33:38;96846.84;;;25.13;53.69
52653;BME280;39353;42.864;12.014;2023-05-10T12:36:23;96845.08;;;25.13;53.78
52653;BME280;39353;42.864;12.014;2023-05-10T12:39:04;96846.12;;;25.11;53.41
52653;BME280;39353;42.864;12.014;2023-05-10T12:41:33;96842.93;;;25.10;53.36
52653;BME280;39353;42.864;12.014;2023-05-10T12:43:59;96843.70;;;25.11;53.18
52653;BME280;39353;42.864;12.014;2023-05-10T12:46:27;96844.48;;;25.12;53.38
52653;BME280;39353;42.864;12.014;2023-05-10T12:49:08;96839.31;;;25.13;53.41
52653;BME280;39353;42.864;12.014;2023-05-10T12:51:35;96842.11;;;25.12;53.64
52653;BME280;39353;42.864;12.014;2023-05-10T12:54:18;96834.76;;;25.12;53.63
52653;BME280;39353;42.864;12.014;2023-05-10T12:57:00;96833.79;;;24.98;51.32
52653;BME280;39353;42.864;12.014;2023-05-10T12:59:27;96832.55;;;24.90;53.27
52653;BME280;39353;42.864;12.014;2023-05-10T13:01:54;96830.13;;;24.89;53.59
52653;BME280;39353;42.864;12.014;2023-05-10T13:04:23;96832.55;;;24.93;53.75
52653;BME280;39353;42.864;12.014;2023-05-10T13:06:50;96835.05;;;24.96;53.74
52653;BME280;39353;42.864;12.014;2023-05-10T13:09:17;96829.52;;;24.98;53.83
52653;BME280;39353;42.864;12.014;2023-05-10T13:11:45;96836.20;;;25.00;54.06
52653;BME280;39353;42.864;12.014;2023-05-10T13:14:29;96828.95;;;24.99;54.20
52653;BME280;39353;42.864;12.014;2023-05-10T13:16:59;96827.48;;;24.99;54.29
52653;BME280;39353;42.864;12.014;2023-05-10T13:19:27;96826.55;;;24.98;54.50
52653;BME280;39353;42.864;12.014;2023-05-10T13:21:55;96822.31;;;24.97;54.58
52653;BME280;39353;42.864;12.014;2023-05-10T13:24:36;96810.56;;;24.96;54.66
52653;BME280;39353;42.864;12.014;2023-05-10T13:27:16;96808.76;;;24.96;54.76
52653;BME280;39353;42.864;12.014;2023-05-10T13:29:57;96800.56;;;24.95;55.04
52653;BME280;39353;42.864;12.014;2023-05-10T13:32:26;96795.23;;;24.94;54.87
52653;BME280;39353;42.864;12.014;2023-05-10T13:35:08;96789.03;;;24.93;54.93
52653;BME280;39353;42.864;12.014;2023-05-10T13:37:49;96789.80;;;24.92;54.96
52653;BME280;39353;42.864;12.014;2023-05-10T13:40:16;96785.35;;;24.92;54.89
52653;BME280;39353;42.864;12.014;2023-05-10T13:42:43;96788.38;;;24.94;54.73
52653;BME280;39353;42.864;12.014;2023-05-10T13:45:10;96782.85;;;24.99;54.81
52653;BME280;39353;42.864;12.014;2023-05-10T13:47:45;96783.63;;;25.05;54.61
52653;BME280;39353;42.864;12.014;2023-05-10T13:50:12;96783.80;;;25.10;54.62
52653;BME280;39353;42.864;12.014;2023-05-10T13:52:53;96783.48;;;25.16;54.46
52653;BME280;39353;42.864;12.014;2023-05-10T13:55:34;96788.71;;;25.20;54.36
52653;BME280;39353;42.864;12.014;2023-05-10T13:58:14;96785.65;;;25.22;54.18
52653;BME280;39353;42.864;12.014;2023-05-10T14:00:41;96781.69;;;25.22;53.97
52653;BME280;39353;42.864;12.014;2023-05-10T14:03:23;96784.11;;;25.23;53.82
52653;BME280;39353;42.864;12.014;2023-05-10T14:05:51;96782.30;;;25.25;53.65